Flight Track Log - Related Links

Times and Time Zones

All times are in EDT time to prevent confusion due to time zone crossing. See the AAL1593 flight status page for this flight to view local times or setup timezone preferences in your user account.

Time Position Orientation Groundspeed Altitude Reporting Facility
EDT Latitude Longitude Course Direction KTS MPH feet Rate Location/Type
Fri 12:22:11 PM 28.4333 -81.3000 139° Southeast 163 188 800  Level Orlando TRACON
Fri 12:22:29 PM 28.4500 -81.2833 41° Northeast 172 198 1,700 2,462 Climbing Orlando TRACON
Fri 12:23:29 PM 28.4833 -81.2333 53° Northeast 235 270 4,000 2,550 Climbing Orlando TRACON
Fri 12:24:00 PM 28.2733 -80.9853 122° Southeast  Level FlightAware Approximate
Fri 12:24:29 PM 28.5167 -81.1500 66° East 278 320 6,800  Level Orlando TRACON
Fri 12:25:00 PM 28.2168 -80.8835 122° Southeast  Level FlightAware Approximate
Fri 12:26:00 PM 28.1730 -80.7740 114° Southeast  Level FlightAware Approximate
Fri 12:26:33 PM 28.4539 -80.9956 115° Southeast 276 318 12,000  Level Miami Center
Fri 12:27:00 PM 28.1190 -80.6856 139° Southeast  Level FlightAware Approximate
Fri 12:27:33 PM 28.3533 -80.9331 151° Southeast 313 360 15,700  Level Miami Center
Fri 12:28:34 PM 28.2550 -80.8681 150° Southeast 372 428 17,800 2,300 Climbing Miami Center
Fri 12:29:33 PM 28.1650 -80.8083 150° Southeast 402 463 20,300 2,370 Climbing Miami Center
Fri 12:30:33 PM 28.0603 -80.7389 150° Southeast 425 489 22,500 1,350 Climbing Miami Center
Fri 12:31:33 PM 27.9517 -80.6669 150° Southeast 437 503 23,000 250 Climbing Miami Center
Fri 12:32:33 PM 27.8386 -80.5975 151° Southeast 449 517 23,000  Level Miami Center
Fri 12:33:33 PM 27.7300 -80.5258 150° Southeast 449 517 23,000  Level Miami Center
Fri 12:34:33 PM 27.6083 -80.4633 156° South 449 517 23,000  Level Miami Center
Fri 12:35:33 PM 27.4906 -80.4153 160° South 449 517 23,000  Level Miami Center
Fri 12:36:33 PM 27.3747 -80.3697 161° South 444 511 23,000  Level Miami Center
Fri 12:37:33 PM 27.2547 -80.3217 160° South 444 511 23,000  Level Miami Center
Fri 12:38:33 PM 27.1369 -80.2761 161° South 444 511 23,000 -496 Level Miami Center
Fri 12:39:34 PM 27.0189 -80.2261 159° South 444 511 22,000 -1,750 Descending Miami Center
Fri 12:40:33 PM 26.9053 -80.1831 161° South 444 511 19,500 -2,571 Descending Miami Center
Fri 12:41:33 PM 26.8081 -80.1408 159° South 428 493 16,900 -2,700 Descending Miami Center
Fri 12:42:33 PM 26.6900 -80.0933 160° South 414 476 14,100 -2,331 Descending Miami Center
Fri 12:43:34 PM 26.5944 -80.0744 170° South 393 452 12,200 -1,550 Descending Miami Center
Fri 12:44:33 PM 26.4944 -80.0556 170° South 361 415 11,000 -605 Descending Miami Center
Fri 12:45:33 PM 26.4133 -80.0417 171° South 316 364 11,000 -250 Level Miami Center
Fri 12:46:33 PM 26.3322 -80.0278 171° South 295 339 10,500 -750 Descending Miami Center
Fri 12:47:33 PM 26.2553 -80.0142 171° South 290 334 9,500 -750 Descending Miami Center
Fri 12:48:33 PM 26.1775 -80.0353 194° South 285 328 9,000 -347 Descending Miami Center
Fri 12:49:34 PM 26.1017 -80.0564 194° South 285 328 8,800 -750 Descending Miami Center
Fri 12:50:33 PM 26.0283 -80.0775 195° South 285 328 7,500 -1,462 Descending Miami Center
Fri 12:51:33 PM 25.9547 -80.0986 194° South 280 322 5,900 -1,600 Descending Miami Center

Login

Don't have an account? Register now (free) for customized features, flight alerts, and more!